sensor_id;sensor_type;location;lat;lon;timestamp;pressure;altitude;pressure_sealevel;temperature;humidity
65760;BME280;52496;51.082;5.066;2023-04-26T00:01:46;101863.34;;;1.36;100.00
65760;BME280;52496;51.082;5.066;2023-04-26T00:04:16;101854.72;;;1.34;100.00
65760;BME280;52496;51.082;5.066;2023-04-26T00:06:47;101858.28;;;1.33;100.00
65760;BME280;52496;51.082;5.066;2023-04-26T00:09:18;101863.75;;;1.30;100.00
65760;BME280;52496;51.082;5.066;2023-04-26T00:11:49;101856.81;;;1.29;100.00
65760;BME280;52496;51.082;5.066;2023-04-26T00:14:20;101863.09;;;1.27;100.00
65760;BME280;52496;51.082;5.066;2023-04-26T00:16:51;101869.41;;;1.24;100.00
65760;BME280;52496;51.082;5.066;2023-04-26T00:19:21;101866.13;;;1.21;100.00
65760;BME280;52496;51.082;5.066;2023-04-26T00:21:53;101857.59;;;1.17;100.00
65760;BME280;52496;51.082;5.066;2023-04-26T00:24:23;101856.84;;;1.15;100.00
65760;BME280;52496;51.082;5.066;2023-04-26T00:26:54;101860.50;;;1.12;100.00
65760;BME280;52496;51.082;5.066;2023-04-26T00:29:25;101866.84;;;1.10;100.00
65760;BME280;52496;51.082;5.066;2023-04-26T00:31:55;101865.25;;;1.07;100.00
65760;BME280;52496;51.082;5.066;2023-04-26T00:34:36;101858.38;;;1.05;100.00
65760;BME280;52496;51.082;5.066;2023-04-26T00:37:08;101854.97;;;1.03;100.00
65760;BME280;52496;51.082;5.066;2023-04-26T00:39:38;101865.72;;;1.00;100.00
65760;BME280;52496;51.082;5.066;2023-04-26T00:42:09;101862.34;;;0.98;100.00
65760;BME280;52496;51.082;5.066;2023-04-26T00:44:39;101868.66;;;0.95;100.00
65760;BME280;52496;51.082;5.066;2023-04-26T00:47:10;101861.03;;;0.90;100.00
65760;BME280;52496;51.082;5.066;2023-04-26T00:49:40;101866.28;;;0.90;100.00
65760;BME280;52496;51.082;5.066;2023-04-26T00:52:11;101850.88;;;0.84;100.00
65760;BME280;52496;51.082;5.066;2023-04-26T00:54:42;101866.69;;;0.84;100.00
65760;BME280;52496;51.082;5.066;2023-04-26T00:57:13;101859.94;;;0.80;100.00
65760;BME280;52496;51.082;5.066;2023-04-26T00:59:43;101867.91;;;0.79;100.00
65760;BME280;52496;51.082;5.066;2023-04-26T01:02:14;101866.41;;;0.75;100.00
65760;BME280;52496;51.082;5.066;2023-04-26T01:04:45;101862.19;;;0.72;100.00
65760;BME280;52496;51.082;5.066;2023-04-26T01:07:16;101876.31;;;0.71;100.00
65760;BME280;52496;51.082;5.066;2023-04-26T01:09:47;101870.28;;;0.69;100.00
65760;BME280;52496;51.082;5.066;2023-04-26T01:12:18;101866.91;;;0.67;100.00
65760;BME280;52496;51.082;5.066;2023-04-26T01:14:48;101871.41;;;0.65;100.00
65760;BME280;52496;51.082;5.066;2023-04-26T01:17:19;101875.16;;;0.61;100.00
65760;BME280;52496;51.082;5.066;2023-04-26T01:19:50;101880.41;;;0.61;100.00
65760;BME280;52496;51.082;5.066;2023-04-26T01:22:23;101875.28;;;0.59;100.00
65760;BME280;52496;51.082;5.066;2023-04-26T01:24:54;101871.97;;;0.56;100.00
65760;BME280;52496;51.082;5.066;2023-04-26T01:27:26;101875.72;;;0.52;100.00
65760;BME280;52496;51.082;5.066;2023-04-26T01:29:57;101884.00;;;0.45;100.00
65760;BME280;52496;51.082;5.066;2023-04-26T01:32:27;101872.91;;;0.40;100.00
65760;BME280;52496;51.082;5.066;2023-04-26T01:34:58;101887.00;;;0.39;100.00
65760;BME280;52496;51.082;5.066;2023-04-26T01:37:30;101869.53;;;0.38;100.00
65760;BME280;52496;51.082;5.066;2023-04-26T01:40:00;101869.72;;;0.35;100.00
65760;BME280;52496;51.082;5.066;2023-04-26T01:42:31;101868.22;;;0.31;100.00
65760;BME280;52496;51.082;5.066;2023-04-26T01:45:02;101873.66;;;0.28;100.00
65760;BME280;52496;51.082;5.066;2023-04-26T01:47:33;101871.22;;;0.25;100.00
65760;BME280;52496;51.082;5.066;2023-04-26T01:50:03;101863.41;;;0.23;100.00
65760;BME280;52496;51.082;5.066;2023-04-26T01:52:34;101855.69;;;0.20;100.00
65760;BME280;52496;51.082;5.066;2023-04-26T01:55:05;101867.25;;;0.18;100.00
65760;BME280;52496;51.082;5.066;2023-04-26T01:57:36;101863.94;;;0.14;100.00
65760;BME280;52496;51.082;5.066;2023-04-26T02:00:07;101865.75;;;0.14;100.00
65760;BME280;52496;51.082;5.066;2023-04-26T02:02:38;101864.91;;;0.13;100.00
65760;BME280;52496;51.082;5.066;2023-04-26T02:05:10;101857.97;;;0.12;100.00
65760;BME280;52496;51.082;5.066;2023-04-26T02:07:41;101860.78;;;0.09;100.00
65760;BME280;52496;51.082;5.066;2023-04-26T02:10:12;101866.09;;;0.08;100.00
65760;BME280;52496;51.082;5.066;2023-04-26T02:12:42;101859.25;;;0.05;100.00
65760;BME280;52496;51.082;5.066;2023-04-26T02:15:12;101858.50;;;0.03;100.00
65760;BME280;52496;51.082;5.066;2023-04-26T02:17:43;101855.28;;;-0.02;100.00
65760;BME280;52496;51.082;5.066;2023-04-26T02:20:14;101855.38;;;-0.04;100.00
65760;BME280;52496;51.082;5.066;2023-04-26T02:22:45;101855.47;;;-0.05;100.00
65760;BME280;52496;51.082;5.066;2023-04-26T02:25:15;101857.28;;;-0.06;100.00
65760;BME280;52496;51.082;5.066;2023-04-26T02:27:46;101854.63;;;-0.06;100.00
65760;BME280;52496;51.082;5.066;2023-04-26T02:30:16;101848.63;;;-0.08;100.00
65760;BME280;52496;51.082;5.066;2023-04-26T02:32:47;101853.09;;;-0.10;100.00
65760;BME280;52496;51.082;5.066;2023-04-26T02:35:17;101850.66;;;-0.13;100.00
65760;BME280;52496;51.082;5.066;2023-04-26T02:37:48;101835.81;;;-0.14;100.00
65760;BME280;52496;51.082;5.066;2023-04-26T02:40:20;101848.97;;;-0.14;100.00
65760;BME280;52496;51.082;5.066;2023-04-26T02:42:51;101844.66;;;-0.15;100.00
65760;BME280;52496;51.082;5.066;2023-04-26T02:45:21;101839.47;;;-0.16;100.00
65760;BME280;52496;51.082;5.066;2023-04-26T02:47:52;101832.63;;;-0.19;100.00
65760;BME280;52496;51.082;5.066;2023-04-26T02:50:22;101838.06;;;-0.22;100.00
65760;BME280;52496;51.082;5.066;2023-04-26T02:52:53;101835.53;;;-0.24;100.00
65760;BME280;52496;51.082;5.066;2023-04-26T02:55:23;101834.69;;;-0.24;100.00
65760;BME280;52496;51.082;5.066;2023-04-26T02:57:54;101828.66;;;-0.26;100.00
65760;BME280;52496;51.082;5.066;2023-04-26T03:00:24;101831.28;;;-0.26;100.00
65760;BME280;52496;51.082;5.066;2023-04-26T03:02:55;101829.78;;;-0.30;100.00
65760;BME280;52496;51.082;5.066;2023-04-26T03:05:26;101836.81;;;-0.31;100.00
65760;BME280;52496;51.082;5.066;2023-04-26T03:07:57;101836.91;;;-0.32;100.00
65760;BME280;52496;51.082;5.066;2023-04-26T03:10:27;101829.97;;;-0.33;100.00
65760;BME280;52496;51.082;5.066;2023-04-26T03:12:58;101823.00;;;-0.34;100.00
65760;BME280;52496;51.082;5.066;2023-04-26T03:15:28;101829.97;;;-0.33;100.00
65760;BME280;52496;51.082;5.066;2023-04-26T03:17:59;101830.81;;;-0.33;100.00
65760;BME280;52496;51.082;5.066;2023-04-26T03:20:30;101834.34;;;-0.34;100.00
65760;BME280;52496;51.082;5.066;2023-04-26T03:23:00;101829.09;;;-0.34;100.00
65760;BME280;52496;51.082;5.066;2023-04-26T03:25:32;101831.00;;;-0.36;100.00
65760;BME280;52496;51.082;5.066;2023-04-26T03:28:03;101831.06;;;-0.37;100.00
65760;BME280;52496;51.082;5.066;2023-04-26T03:30:33;101824.91;;;-0.36;100.00
65760;BME280;52496;51.082;5.066;2023-04-26T03:33:04;101824.91;;;-0.36;100.00
65760;BME280;52496;51.082;5.066;2023-04-26T03:35:34;101826.56;;;-0.35;100.00
65760;BME280;52496;51.082;5.066;2023-04-26T03:38:05;101829.09;;;-0.34;100.00
65760;BME280;52496;51.082;5.066;2023-04-26T03:40:35;101819.47;;;-0.33;100.00
65760;BME280;52496;51.082;5.066;2023-04-26T03:43:07;101823.09;;;-0.36;100.00
65760;BME280;52496;51.082;5.066;2023-04-26T03:45:37;101829.28;;;-0.37;100.00
65760;BME280;52496;51.082;5.066;2023-04-26T03:48:08;101834.53;;;-0.37;100.00
65760;BME280;52496;51.082;5.066;2023-04-26T03:50:38;101822.34;;;-0.38;100.00
65760;BME280;52496;51.082;5.066;2023-04-26T03:53:10;101832.00;;;-0.38;100.00
65760;BME280;52496;51.082;5.066;2023-04-26T03:55:40;101821.50;;;-0.38;100.00
65760;BME280;52496;51.082;5.066;2023-04-26T03:58:11;101822.44;;;-0.39;100.00
65760;BME280;52496;51.082;5.066;2023-04-26T04:00:41;101823.34;;;-0.40;100.00
65760;BME280;52496;51.082;5.066;2023-04-26T04:03:12;101826.75;;;-0.38;100.00
65760;BME280;52496;51.082;5.066;2023-04-26T04:05:50;101822.25;;;-0.36;100.00
65760;BME280;52496;51.082;5.066;2023-04-26T04:08:22;101823.00;;;-0.34;100.00
65760;BME280;52496;51.082;5.066;2023-04-26T04:10:52;101828.25;;;-0.34;100.00
65760;BME280;52496;51.082;5.066;2023-04-26T04:13:23;101822.94;;;-0.33;100.00
65760;BME280;52496;51.082;5.066;2023-04-26T04:15:53;101836.91;;;-0.32;100.00
65760;BME280;52496;51.082;5.066;2023-04-26T04:18:24;101842.00;;;-0.29;100.00
65760;BME280;52496;51.082;5.066;2023-04-26T04:20:55;101840.13;;;-0.27;100.00
65760;BME280;52496;51.082;5.066;2023-04-26T04:23:26;101834.88;;;-0.27;100.00
65760;BME280;52496;51.082;5.066;2023-04-26T04:25:57;101844.34;;;-0.25;100.00
65760;BME280;52496;51.082;5.066;2023-04-26T04:28:27;101839.94;;;-0.24;100.00
65760;BME280;52496;51.082;5.066;2023-04-26T04:30:59;101839.19;;;-0.26;100.00
65760;BME280;52496;51.082;5.066;2023-04-26T04:33:30;101849.50;;;-0.23;100.00
65760;BME280;52496;51.082;5.066;2023-04-26T04:36:02;101852.16;;;-0.23;100.00
65760;BME280;52496;51.082;5.066;2023-04-26T04:38:32;101848.56;;;-0.22;100.00
65760;BME280;52496;51.082;5.066;2023-04-26T04:41:03;101853.66;;;-0.19;100.00
65760;BME280;52496;51.082;5.066;2023-04-26T04:43:33;101849.16;;;-0.17;100.00
65760;BME280;52496;51.082;5.066;2023-04-26T04:46:04;101846.16;;;-0.11;100.00
65760;BME280;52496;51.082;5.066;2023-04-26T04:48:34;101855.56;;;-0.07;100.00
65760;BME280;52496;51.082;5.066;2023-04-26T04:51:08;101852.56;;;-0.01;100.00
65760;BME280;52496;51.082;5.066;2023-04-26T04:53:38;101850.50;;;0.05;100.00
65760;BME280;52496;51.082;5.066;2023-04-26T04:56:09;101858.88;;;0.11;100.00
65760;BME280;52496;51.082;5.066;2023-04-26T04:58:39;101853.16;;;0.19;100.00
65760;BME280;52496;51.082;5.066;2023-04-26T05:01:11;101842.47;;;0.22;100.00
65760;BME280;52496;51.082;5.066;2023-04-26T05:03:41;101848.28;;;0.27;100.00
65760;BME280;52496;51.082;5.066;2023-04-26T05:06:12;101856.66;;;0.34;100.00
65760;BME280;52496;51.082;5.066;2023-04-26T05:08:42;101849.25;;;0.40;100.00
65760;BME280;52496;51.082;5.066;2023-04-26T05:11:12;101863.88;;;0.44;100.00
65760;BME280;52496;51.082;5.066;2023-04-26T05:13:43;101863.50;;;0.51;100.00
65760;BME280;52496;51.082;5.066;2023-04-26T05:16:16;101854.28;;;0.58;100.00
65760;BME280;52496;51.082;5.066;2023-04-26T05:18:47;101853.75;;;0.67;100.00
65760;BME280;52496;51.082;5.066;2023-04-26T05:21:17;101862.00;;;0.75;100.00
65760;BME280;52496;51.082;5.066;2023-04-26T05:23:48;101858.06;;;0.82;100.00
65760;BME280;52496;51.082;5.066;2023-04-26T05:26:19;101852.41;;;0.88;100.00
65760;BME280;52496;51.082;5.066;2023-04-26T05:28:49;101857.28;;;0.95;100.00
65760;BME280;52496;51.082;5.066;2023-04-26T05:31:20;101861.28;;;1.00;100.00
65760;BME280;52496;51.082;5.066;2023-04-26T05:33:51;101862.69;;;1.06;100.00
65760;BME280;52496;51.082;5.066;2023-04-26T05:36:21;101864.94;;;1.12;100.00
65760;BME280;52496;51.082;5.066;2023-04-26T05:38:52;101863.63;;;1.19;100.00
65760;BME280;52496;51.082;5.066;2023-04-26T05:41:22;101870.06;;;1.28;100.00
65760;BME280;52496;51.082;5.066;2023-04-26T05:43:53;101872.00;;;1.38;100.00
65760;BME280;52496;51.082;5.066;2023-04-26T05:46:23;101865.94;;;1.51;100.00
65760;BME280;52496;51.082;5.066;2023-04-26T05:48:54;101875.69;;;1.63;100.00
65760;BME280;52496;51.082;5.066;2023-04-26T05:51:24;101864.44;;;1.74;100.00
65760;BME280;52496;51.082;5.066;2023-04-26T05:53:55;101865.19;;;1.89;100.00
65760;BME280;52496;51.082;5.066;2023-04-26T05:56:26;101868.59;;;2.03;100.00
65760;BME280;52496;51.082;5.066;2023-04-26T05:58:57;101875.56;;;2.17;100.00
65760;BME280;52496;51.082;5.066;2023-04-26T06:01:27;101870.94;;;2.34;100.00
65760;BME280;52496;51.082;5.066;2023-04-26T06:03:58;101874.22;;;2.50;100.00
65760;BME280;52496;51.082;5.066;2023-04-26T06:06:28;101871.22;;;2.67;100.00
65760;BME280;52496;51.082;5.066;2023-04-26T06:08:59;101879.78;;;2.84;100.00
65760;BME280;52496;51.082;5.066;2023-04-26T06:11:30;101882.78;;;3.03;100.00
65760;BME280;52496;51.082;5.066;2023-04-26T06:14:00;101885.78;;;3.22;100.00
65760;BME280;52496;51.082;5.066;2023-04-26T06:16:31;101885.41;;;3.40;100.00
65760;BME280;52496;51.082;5.066;2023-04-26T06:19:01;101892.09;;;3.57;100.00
65760;BME280;52496;51.082;5.066;2023-04-26T06:21:31;101890.22;;;3.70;100.00
65760;BME280;52496;51.082;5.066;2023-04-26T06:24:02;101888.47;;;3.82;100.00
65760;BME280;52496;51.082;5.066;2023-04-26T06:26:33;101896.94;;;3.98;100.00
65760;BME280;52496;51.082;5.066;2023-04-26T06:29:03;101899.06;;;4.17;100.00
65760;BME280;52496;51.082;5.066;2023-04-26T06:31:34;101893.91;;;4.38;100.00
65760;BME280;52496;51.082;5.066;2023-04-26T06:34:04;101901.06;;;4.60;100.00
65760;BME280;52496;51.082;5.066;2023-04-26T06:36:35;101896.47;;;4.85;100.00
65760;BME280;52496;51.082;5.066;2023-04-26T06:39:05;101898.59;;;5.02;100.00
65760;BME280;52496;51.082;5.066;2023-04-26T06:41:36;101887.75;;;5.16;100.00
65760;BME280;52496;51.082;5.066;2023-04-26T06:44:06;101895.94;;;5.36;100.00
65760;BME280;52496;51.082;5.066;2023-04-26T06:46:36;101900.56;;;5.55;100.00
65760;BME280;52496;51.082;5.066;2023-04-26T06:49:07;101906.28;;;5.71;100.00
65760;BME280;52496;51.082;5.066;2023-04-26T06:51:38;101902.63;;;5.83;100.00
65760;BME280;52496;51.082;5.066;2023-04-26T06:54:10;101903.34;;;5.96;100.00
65760;BME280;52496;51.082;5.066;2023-04-26T06:56:41;101910.13;;;6.10;100.00
65760;BME280;52496;51.082;5.066;2023-04-26T06:59:11;101912.72;;;6.22;100.00
65760;BME280;52496;51.082;5.066;2023-04-26T07:01:42;101909.41;;;6.29;100.00
65760;BME280;52496;51.082;5.066;2023-04-26T07:04:12;101914.41;;;6.43;100.00
65760;BME280;52496;51.082;5.066;2023-04-26T07:06:44;101910.94;;;6.53;100.00
65760;BME280;52496;51.082;5.066;2023-04-26T07:09:15;101909.63;;;6.68;100.00
65760;BME280;52496;51.082;5.066;2023-04-26T07:11:45;101903.81;;;6.84;100.00
65760;BME280;52496;51.082;5.066;2023-04-26T07:14:16;101900.53;;;7.01;100.00
65760;BME280;52496;51.082;5.066;2023-04-26T07:16:48;101894.97;;;7.14;100.00
65760;BME280;52496;51.082;5.066;2023-04-26T07:19:18;101901.72;;;7.28;100.00
65760;BME280;52496;51.082;5.066;2023-04-26T07:21:49;101890.66;;;7.32;100.00
65760;BME280;52496;51.082;5.066;2023-04-26T07:24:20;101897.97;;;7.40;100.00
65760;BME280;52496;51.082;5.066;2023-04-26T07:26:52;101888.59;;;7.46;100.00
65760;BME280;52496;51.082;5.066;2023-04-26T07:29:23;101899.09;;;7.57;100.00
65760;BME280;52496;51.082;5.066;2023-04-26T07:31:53;101893.34;;;7.71;100.00
65760;BME280;52496;51.082;5.066;2023-04-26T07:34:24;101891.13;;;7.86;100.00
65760;BME280;52496;51.082;5.066;2023-04-26T07:36:55;101889.41;;;8.04;100.00
65760;BME280;52496;51.082;5.066;2023-04-26T07:39:25;101896.41;;;8.15;100.00
65760;BME280;52496;51.082;5.066;2023-04-26T07:41:56;101900.59;;;8.27;100.00
65760;BME280;52496;51.082;5.066;2023-04-26T07:44:26;101897.78;;;8.39;97.20
65760;BME280;52496;51.082;5.066;2023-04-26T07:46:57;101895.56;;;8.44;98.29
65760;BME280;52496;51.082;5.066;2023-04-26T07:49:27;101897.75;;;8.58;99.61
65760;BME280;52496;51.082;5.066;2023-04-26T07:51:58;101901.63;;;8.73;93.78
65760;BME280;52496;51.082;5.066;2023-04-26T07:54:31;101907.47;;;8.87;94.94
65760;BME280;52496;51.082;5.066;2023-04-26T07:57:01;101904.44;;;9.00;94.47
65760;BME280;52496;51.082;5.066;2023-04-26T07:59:32;101907.22;;;9.08;89.41
65760;BME280;52496;51.082;5.066;2023-04-26T08:02:03;101905.69;;;9.05;91.01
65760;BME280;52496;51.082;5.066;2023-04-26T08:04:34;101904.50;;;9.17;92.00
65760;BME280;52496;51.082;5.066;2023-04-26T08:07:04;101907.63;;;9.31;88.74
65760;BME280;52496;51.082;5.066;2023-04-26T08:09:35;101906.00;;;9.48;87.70
65760;BME280;52496;51.082;5.066;2023-04-26T08:12:06;101903.66;;;9.62;86.12
65760;BME280;52496;51.082;5.066;2023-04-26T08:14:36;101900.06;;;9.90;85.48
65760;BME280;52496;51.082;5.066;2023-04-26T08:17:07;101895.44;;;10.18;84.21
65760;BME280;52496;51.082;5.066;2023-04-26T08:19:41;101900.41;;;10.56;87.33
65760;BME280;52496;51.082;5.066;2023-04-26T08:22:11;101903.53;;;10.86;82.02
65760;BME280;52496;51.082;5.066;2023-04-26T08:24:50;101901.59;;;11.05;76.57
65760;BME280;52496;51.082;5.066;2023-04-26T08:27:20;101903.50;;;11.12;71.73
65760;BME280;52496;51.082;5.066;2023-04-26T08:29:52;101896.78;;;11.08;75.95
65760;BME280;52496;51.082;5.066;2023-04-26T08:32:22;101897.50;;;11.18;71.98
65760;BME280;52496;51.082;5.066;2023-04-26T08:34:53;101889.38;;;11.53;75.06
65760;BME280;52496;51.082;5.066;2023-04-26T08:37:24;101893.09;;;11.84;74.04
65760;BME280;52496;51.082;5.066;2023-04-26T08:39:55;101889.59;;;12.08;70.18
65760;BME280;52496;51.082;5.066;2023-04-26T08:42:26;101890.75;;;12.30;69.78
65760;BME280;52496;51.082;5.066;2023-04-26T08:45:00;101889.38;;;12.51;71.33
65760;BME280;52496;51.082;5.066;2023-04-26T08:50:12;101891.38;;;12.49;66.41
65760;BME280;52496;51.082;5.066;2023-04-26T08:52:46;101887.69;;;12.42;67.57
65760;BME280;52496;51.082;5.066;2023-04-26T08:55:18;101891.91;;;12.36;64.55
65760;BME280;52496;51.082;5.066;2023-04-26T08:57:49;101885.91;;;12.18;67.11
65760;BME280;52496;51.082;5.066;2023-04-26T09:00:20;101878.03;;;12.16;66.51
65760;BME280;52496;51.082;5.066;2023-04-26T09:02:51;101873.16;;;12.28;68.97
65760;BME280;52496;51.082;5.066;2023-04-26T09:05:22;101875.13;;;12.42;65.06
65760;BME280;52496;51.082;5.066;2023-04-26T09:07:59;101870.53;;;12.59;62.61
65760;BME280;52496;51.082;5.066;2023-04-26T09:10:31;101871.72;;;12.56;62.87
65760;BME280;52496;51.082;5.066;2023-04-26T09:13:02;101875.28;;;12.57;61.58
65760;BME280;52496;51.082;5.066;2023-04-26T09:15:32;101868.41;;;12.54;60.70
65760;BME280;52496;51.082;5.066;2023-04-26T09:18:20;101872.66;;;12.80;63.06
65760;BME280;52496;51.082;5.066;2023-04-26T09:21:07;101870.63;;;13.21;62.31
65760;BME280;52496;51.082;5.066;2023-04-26T09:23:59;101878.00;;;13.50;57.66
65760;BME280;52496;51.082;5.066;2023-04-26T09:26:33;101870.31;;;13.70;59.21
65760;BME280;52496;51.082;5.066;2023-04-26T09:29:15;101874.19;;;13.91;55.57
65760;BME280;52496;51.082;5.066;2023-04-26T09:31:47;101872.72;;;13.88;56.30
65760;BME280;52496;51.082;5.066;2023-04-26T09:34:18;101879.03;;;13.72;54.12
65760;BME280;52496;51.082;5.066;2023-04-26T09:36:52;101877.00;;;13.74;54.66
65760;BME280;52496;51.082;5.066;2023-04-26T09:39:40;101874.38;;;13.66;51.87
65760;BME280;52496;51.082;5.066;2023-04-26T09:42:11;101871.41;;;13.61;50.60
65760;BME280;52496;51.082;5.066;2023-04-26T09:44:41;101881.88;;;13.48;51.40
65760;BME280;52496;51.082;5.066;2023-04-26T09:47:12;101880.00;;;13.34;51.12
65760;BME280;52496;51.082;5.066;2023-04-26T09:49:47;101880.53;;;13.21;53.66
65760;BME280;52496;51.082;5.066;2023-04-26T09:52:19;101874.06;;;13.07;53.24
65760;BME280;52496;51.082;5.066;2023-04-26T09:54:51;101875.72;;;13.08;53.14
65760;BME280;52496;51.082;5.066;2023-04-26T09:57:22;101876.41;;;13.02;52.55
65760;BME280;52496;51.082;5.066;2023-04-26T09:59:53;101872.22;;;12.99;51.21
65760;BME280;52496;51.082;5.066;2023-04-26T10:02:26;101876.78;;;12.99;52.37
65760;BME280;52496;51.082;5.066;2023-04-26T10:04:58;101870.91;;;12.95;52.85
65760;BME280;52496;51.082;5.066;2023-04-26T10:07:32;101874.78;;;12.93;50.07
65760;BME280;52496;51.082;5.066;2023-04-26T10:10:03;101879.44;;;12.99;49.85
65760;BME280;52496;51.082;5.066;2023-04-26T10:12:34;101872.53;;;13.04;51.47
65760;BME280;52496;51.082;5.066;2023-04-26T10:15:07;101876.06;;;13.05;48.71
65760;BME280;52496;51.082;5.066;2023-04-26T10:17:38;101868.31;;;13.10;51.27
65760;BME280;52496;51.082;5.066;2023-04-26T10:20:11;101869.59;;;13.30;50.69
65760;BME280;52496;51.082;5.066;2023-04-26T10:22:45;101863.88;;;13.57;50.98
65760;BME280;52496;51.082;5.066;2023-04-26T10:25:19;101864.41;;;13.75;49.33
65760;BME280;52496;51.082;5.066;2023-04-26T10:27:51;101861.31;;;14.01;49.30
65760;BME280;52496;51.082;5.066;2023-04-26T10:30:21;101854.22;;;14.23;49.87
65760;BME280;52496;51.082;5.066;2023-04-26T10:35:27;101859.69;;;14.30;48.73
65760;BME280;52496;51.082;5.066;2023-04-26T10:40:43;101850.63;;;14.90;48.48
65760;BME280;52496;51.082;5.066;2023-04-26T10:45:51;101842.84;;;15.17;51.07
65760;BME280;52496;51.082;5.066;2023-04-26T10:48:30;101844.78;;;15.23;52.26
65760;BME280;52496;51.082;5.066;2023-04-26T10:59:11;101832.19;;;15.51;46.13
65760;BME280;52496;51.082;5.066;2023-04-26T11:01:42;101832.19;;;15.51;42.81
65760;BME280;52496;51.082;5.066;2023-04-26T11:04:13;101828.75;;;15.36;43.74
65760;BME280;52496;51.082;5.066;2023-04-26T11:09:34;101836.19;;;15.12;42.86
65760;BME280;52496;51.082;5.066;2023-04-26T11:12:10;101829.88;;;15.05;42.84
65760;BME280;52496;51.082;5.066;2023-04-26T11:14:44;101830.19;;;14.81;41.01
65760;BME280;52496;51.082;5.066;2023-04-26T11:17:15;101828.34;;;14.81;45.77
65760;BME280;52496;51.082;5.066;2023-04-26T11:19:46;101825.13;;;15.07;42.47
65760;BME280;52496;51.082;5.066;2023-04-26T11:22:20;101813.09;;;15.46;43.53
65760;BME280;52496;51.082;5.066;2023-04-26T11:24:51;101819.78;;;15.72;41.33
65760;BME280;52496;51.082;5.066;2023-04-26T11:27:26;101819.38;;;16.03;41.24
65760;BME280;52496;51.082;5.066;2023-04-26T11:29:57;101822.44;;;16.28;40.65
65760;BME280;52496;51.082;5.066;2023-04-26T11:32:27;101820.25;;;16.38;40.73
65760;BME280;52496;51.082;5.066;2023-04-26T11:34:59;101820.72;;;16.48;40.36
65760;BME280;52496;51.082;5.066;2023-04-26T11:37:30;101815.06;;;16.78;39.96
65760;BME280;52496;51.082;5.066;2023-04-26T11:40:00;101810.81;;;17.10;40.99
65760;BME280;52496;51.082;5.066;2023-04-26T11:42:31;101807.50;;;17.28;39.27
65760;BME280;52496;51.082;5.066;2023-04-26T11:45:01;101802.56;;;17.52;39.81
65760;BME280;52496;51.082;5.066;2023-04-26T11:47:36;101808.81;;;17.72;37.63
65760;BME280;52496;51.082;5.066;2023-04-26T11:50:08;101812.19;;;17.81;37.33
65760;BME280;52496;51.082;5.066;2023-04-26T11:52:39;101806.53;;;17.69;35.19
65760;BME280;52496;51.082;5.066;2023-04-26T11:55:10;101807.56;;;17.68;36.96
65760;BME280;52496;51.082;5.066;2023-04-26T11:57:40;101812.97;;;17.68;37.45
65760;BME280;52496;51.082;5.066;2023-04-26T12:00:12;101810.84;;;17.43;35.78
65760;BME280;52496;51.082;5.066;2023-04-26T12:02:46;101807.72;;;17.27;35.67
65760;BME280;52496;51.082;5.066;2023-04-26T12:05:24;101805.38;;;16.97;36.34
65760;BME280;52496;51.082;5.066;2023-04-26T12:07:56;101797.47;;;16.95;36.59
65760;BME280;52496;51.082;5.066;2023-04-26T12:10:30;101801.19;;;16.94;35.40
65760;BME280;52496;51.082;5.066;2023-04-26T12:13:01;101802.41;;;16.85;36.26
65760;BME280;52496;51.082;5.066;2023-04-26T12:15:32;101801.16;;;16.81;36.78
65760;BME280;52496;51.082;5.066;2023-04-26T12:18:09;101804.09;;;16.86;35.87
65760;BME280;52496;51.082;5.066;2023-04-26T12:20:41;101796.84;;;16.52;35.49
65760;BME280;52496;51.082;5.066;2023-04-26T12:23:13;101802.22;;;16.45;38.02
65760;BME280;52496;51.082;5.066;2023-04-26T12:25:55;101800.03;;;16.69;38.50
65760;BME280;52496;51.082;5.066;2023-04-26T12:28:26;101810.50;;;16.85;36.74
65760;BME280;52496;51.082;5.066;2023-04-26T12:30:57;101802.41;;;16.85;36.06
65760;BME280;52496;51.082;5.066;2023-04-26T12:33:27;101807.06;;;17.05;35.72
65760;BME280;52496;51.082;5.066;2023-04-26T12:36:05;101798.91;;;16.91;34.01
65760;BME280;52496;51.082;5.066;2023-04-26T12:38:37;101800.38;;;16.94;38.72
65760;BME280;52496;51.082;5.066;2023-04-26T12:41:08;101799.63;;;17.20;35.69
65760;BME280;52496;51.082;5.066;2023-04-26T12:43:38;101805.84;;;17.27;35.14
65760;BME280;52496;51.082;5.066;2023-04-26T12:46:08;101801.69;;;17.31;35.85
65760;BME280;52496;51.082;5.066;2023-04-26T12:48:39;101803.56;;;17.37;34.65
65760;BME280;52496;51.082;5.066;2023-04-26T12:51:10;101815.41;;;17.23;36.35
65760;BME280;52496;51.082;5.066;2023-04-26T12:53:40;101810.78;;;17.04;35.13
65760;BME280;52496;51.082;5.066;2023-04-26T12:56:12;101815.09;;;16.91;34.98
65760;BME280;52496;51.082;5.066;2023-04-26T12:58:42;101799.91;;;16.77;34.74
65760;BME280;52496;51.082;5.066;2023-04-26T13:01:13;101808.16;;;16.69;35.95
65760;BME280;52496;51.082;5.066;2023-04-26T13:03:43;101806.50;;;16.68;36.81
65760;BME280;52496;51.082;5.066;2023-04-26T13:06:14;101813.91;;;16.52;35.70
65760;BME280;52496;51.082;5.066;2023-04-26T13:08:45;101800.97;;;16.48;37.61
65760;BME280;52496;51.082;5.066;2023-04-26T13:11:15;101809.47;;;16.45;34.87
65760;BME280;52496;51.082;5.066;2023-04-26T13:13:47;101806.59;;;16.46;34.78
65760;BME280;52496;51.082;5.066;2023-04-26T13:16:18;101803.84;;;16.40;34.75
65760;BME280;52496;51.082;5.066;2023-04-26T13:18:49;101804.06;;;16.38;35.75
65760;BME280;52496;51.082;5.066;2023-04-26T13:21:19;101802.91;;;16.61;35.63
65760;BME280;52496;51.082;5.066;2023-04-26T13:23:50;101803.06;;;16.94;37.50
65760;BME280;52496;51.082;5.066;2023-04-26T13:26:20;101799.78;;;17.12;35.73
65760;BME280;52496;51.082;5.066;2023-04-26T13:28:51;101797.16;;;17.45;37.34
65760;BME280;52496;51.082;5.066;2023-04-26T13:31:21;101801.31;;;17.74;37.56